ENY14 KXNA-KDFW
Flight info
| Callsign | ENY14 |
|---|---|
| Flight time | 0h 50m |
| Altitude | 34000 |
| Route | KOMMA RRNET SEEVR4 |
| Aircraft | E170/M-SDE3GILORVW/S |
Departure
| Time | 2026-05-04 15:19 |
|---|---|
| Airport | Northwest Arkansas National Airport (KXNA) |
Arrival
| Time | 2026-05-04 16:09 |
|---|---|
| Airport | Dallas Fort Worth International Airport (KDFW) |
| Time | Latitude | Longitude | Altitude | Speed | Heading |
|---|---|---|---|---|---|
| 2026-05-04 14:52 | 36.27772 | -94.29674 | 1262 ft | 0 kts | 189° |
| 2026-05-04 15:05 | 36.27782 | -94.29672 | 1262 ft | 2 kts | 189° |
| 2026-05-04 15:05 | 36.27797 | -94.29669 | 1262 ft | 2 kts | 189° |
| 2026-05-04 15:06 | 36.27811 | -94.29666 | 1261 ft | 2 kts | 189° |
| 2026-05-04 15:06 | 36.27826 | -94.29663 | 1261 ft | 2 kts | 206° |
| 2026-05-04 15:06 | 36.27837 | -94.29651 | 1261 ft | 1 kts | 245° |
| 2026-05-04 15:07 | 36.27828 | -94.29678 | 1262 ft | 0 kts | 249° |
| 2026-05-04 15:10 | 36.27822 | -94.29696 | 1263 ft | 2 kts | 249° |
| 2026-05-04 15:11 | 36.27815 | -94.29720 | 1263 ft | 3 kts | 248° |
| 2026-05-04 15:11 | 36.27803 | -94.29754 | 1264 ft | 4 kts | 250° |
| 2026-05-04 15:11 | 36.27790 | -94.29799 | 1265 ft | 6 kts | 249° |
| 2026-05-04 15:11 | 36.27776 | -94.29857 | 1265 ft | 7 kts | 271° |
| 2026-05-04 15:12 | 36.27818 | -94.29895 | 1265 ft | 9 kts | 340° |
| 2026-05-04 15:12 | 36.27842 | -94.29964 | 1265 ft | 11 kts | 248° |
| 2026-05-04 15:12 | 36.27810 | -94.30065 | 1267 ft | 13 kts | 249° |
| 2026-05-04 15:12 | 36.27776 | -94.30177 | 1269 ft | 14 kts | 251° |
| 2026-05-04 15:13 | 36.27780 | -94.30277 | 1269 ft | 12 kts | 339° |
| 2026-05-04 15:13 | 36.27870 | -94.30321 | 1269 ft | 15 kts | 338° |
| 2026-05-04 15:13 | 36.27978 | -94.30370 | 1269 ft | 17 kts | 339° |
| 2026-05-04 15:13 | 36.28094 | -94.30420 | 1269 ft | 18 kts | 339° |
| 2026-05-04 15:14 | 36.28212 | -94.30476 | 1268 ft | 18 kts | 339° |
| 2026-05-04 15:14 | 36.28332 | -94.30531 | 1269 ft | 18 kts | 340° |
| 2026-05-04 15:14 | 36.28454 | -94.30587 | 1268 ft | 19 kts | 338° |
| 2026-05-04 15:14 | 36.28584 | -94.30647 | 1267 ft | 20 kts | 340° |
| 2026-05-04 15:15 | 36.28720 | -94.30709 | 1266 ft | 21 kts | 339° |
| 2026-05-04 15:15 | 36.28858 | -94.30772 | 1266 ft | 21 kts | 340° |
| 2026-05-04 15:15 | 36.28992 | -94.30833 | 1269 ft | 19 kts | 340° |
| 2026-05-04 15:16 | 36.29254 | -94.30952 | 1268 ft | 20 kts | 339° |
| 2026-05-04 15:16 | 36.29356 | -94.31015 | 1268 ft | 11 kts | 291° |
| 2026-05-04 15:16 | 36.29330 | -94.31131 | 1274 ft | 3 kts | 247° |
| 2026-05-04 15:17 | 36.29326 | -94.31143 | 1274 ft | 0 kts | 247° |
| 2026-05-04 15:17 | 36.29315 | -94.31171 | 1275 ft | 6 kts | 230° |
| 2026-05-04 15:17 | 36.29257 | -94.31169 | 1276 ft | 13 kts | 159° |
| 2026-05-04 15:18 | 36.28962 | -94.31045 | 1276 ft | 77 kts | 160° |
| 2026-05-04 15:18 | 36.28268 | -94.30720 | 1271 ft | 132 kts | 161° |
| 2026-05-04 15:18 | 36.27377 | -94.30285 | 1669 ft | 139 kts | 166° |
| 2026-05-04 15:19 | 36.25520 | -94.29336 | 2673 ft | 145 kts | 165° |
| 2026-05-04 15:19 | 36.24561 | -94.28865 | 3268 ft | 144 kts | 184° |
| 2026-05-04 15:19 | 36.22671 | -94.29235 | 4575 ft | 140 kts | 200° |
| 2026-05-04 15:20 | 36.21672 | -94.29672 | 4788 ft | 169 kts | 206° |
| 2026-05-04 15:20 | 36.20470 | -94.30237 | 5047 ft | 198 kts | 203° |
| 2026-05-04 15:20 | 36.19075 | -94.30804 | 5386 ft | 225 kts | 201° |
| 2026-05-04 15:20 | 36.17464 | -94.31393 | 5641 ft | 255 kts | 199° |
| 2026-05-04 15:21 | 36.15693 | -94.31996 | 6248 ft | 269 kts | 199° |
| 2026-05-04 15:21 | 36.13880 | -94.32591 | 7070 ft | 273 kts | 198° |
| 2026-05-04 15:21 | 36.10185 | -94.33775 | 8731 ft | 278 kts | 198° |
| 2026-05-04 15:22 | 36.08314 | -94.34371 | 9429 ft | 284 kts | 198° |
| 2026-05-04 15:22 | 36.06370 | -94.34987 | 10117 ft | 290 kts | 198° |
| 2026-05-04 15:22 | 36.02399 | -94.36245 | 11344 ft | 304 kts | 197° |
| 2026-05-04 15:23 | 36.00310 | -94.36906 | 11865 ft | 314 kts | 197° |
| 2026-05-04 15:23 | 35.98173 | -94.37582 | 12384 ft | 323 kts | 197° |
| 2026-05-04 15:23 | 35.95967 | -94.38277 | 12959 ft | 329 kts | 197° |
| 2026-05-04 15:23 | 35.93756 | -94.38975 | 13594 ft | 333 kts | 197° |
| 2026-05-04 15:24 | 35.89219 | -94.40405 | 14921 ft | 338 kts | 197° |
| 2026-05-04 15:24 | 35.84637 | -94.41849 | 16171 ft | 345 kts | 197° |
| 2026-05-04 15:25 | 35.82303 | -94.42584 | 16795 ft | 347 kts | 198° |
| 2026-05-04 15:25 | 35.79966 | -94.43319 | 17369 ft | 351 kts | 198° |
| 2026-05-04 15:25 | 35.77600 | -94.44063 | 17947 ft | 354 kts | 198° |
| 2026-05-04 15:26 | 35.72773 | -94.45579 | 19078 ft | 361 kts | 199° |
| 2026-05-04 15:26 | 35.70319 | -94.46349 | 19624 ft | 365 kts | 199° |
| 2026-05-04 15:26 | 35.65384 | -94.47896 | 20739 ft | 369 kts | 200° |
| 2026-05-04 15:27 | 35.62875 | -94.48682 | 21301 ft | 371 kts | 200° |
| 2026-05-04 15:27 | 35.57852 | -94.50254 | 22287 ft | 378 kts | 200° |
| 2026-05-04 15:28 | 35.52713 | -94.51859 | 23228 ft | 385 kts | 201° |
| 2026-05-04 15:28 | 35.50120 | -94.52669 | 23709 ft | 387 kts | 201° |
| 2026-05-04 15:28 | 35.44849 | -94.54313 | 24566 ft | 395 kts | 201° |
| 2026-05-04 15:29 | 35.42156 | -94.55151 | 25000 ft | 398 kts | 202° |
| 2026-05-04 15:30 | 35.31284 | -94.58533 | 26613 ft | 409 kts | 202° |
| 2026-05-04 15:30 | 35.22909 | -94.61131 | 27756 ft | 417 kts | 203° |
| 2026-05-04 15:31 | 35.17216 | -94.62894 | 28408 ft | 424 kts | 204° |
| 2026-05-04 15:31 | 35.14339 | -94.63783 | 28781 ft | 425 kts | 204° |
| 2026-05-04 15:32 | 35.05564 | -94.66495 | 29665 ft | 437 kts | 204° |
| 2026-05-04 15:32 | 35.00154 | -94.69359 | 30341 ft | 414 kts | 224° |
| 2026-05-04 15:33 | 34.95820 | -94.73756 | 31153 ft | 402 kts | 232° |
| 2026-05-04 15:34 | 34.89405 | -94.80579 | 32021 ft | 408 kts | 233° |
| 2026-05-04 15:34 | 34.87241 | -94.82873 | 32421 ft | 406 kts | 233° |
| 2026-05-04 15:34 | 34.83028 | -94.87337 | 33244 ft | 399 kts | 234° |
| 2026-05-04 15:35 | 34.78812 | -94.91685 | 33916 ft | 398 kts | 234° |
| 2026-05-04 15:35 | 34.76685 | -94.93863 | 33943 ft | 405 kts | 233° |
| 2026-05-04 15:36 | 34.70080 | -95.00608 | 33953 ft | 421 kts | 233° |
| 2026-05-04 15:36 | 34.65570 | -95.05199 | 33949 ft | 422 kts | 233° |
| 2026-05-04 15:37 | 34.61043 | -95.09810 | 33951 ft | 425 kts | 233° |
| 2026-05-04 15:37 | 34.56513 | -95.14413 | 33957 ft | 425 kts | 233° |
| 2026-05-04 15:38 | 34.52004 | -95.18988 | 33949 ft | 423 kts | 233° |
| 2026-05-04 15:38 | 34.47464 | -95.23587 | 33945 ft | 424 kts | 233° |
| 2026-05-04 15:39 | 34.42938 | -95.28157 | 33949 ft | 428 kts | 233° |
| 2026-05-04 15:40 | 34.36117 | -95.35025 | 33945 ft | 424 kts | 234° |
| 2026-05-04 15:40 | 34.31559 | -95.39610 | 33937 ft | 426 kts | 233° |
| 2026-05-04 15:41 | 34.27060 | -95.44123 | 33951 ft | 419 kts | 233° |
| 2026-05-04 15:41 | 34.22561 | -95.48634 | 33936 ft | 421 kts | 234° |
| 2026-05-04 15:42 | 34.18039 | -95.53159 | 33319 ft | 423 kts | 233° |
| 2026-05-04 15:42 | 34.15763 | -95.55431 | 32788 ft | 423 kts | 232° |
| 2026-05-04 15:42 | 34.13509 | -95.57679 | 32217 ft | 421 kts | 232° |
| 2026-05-04 15:42 | 34.11263 | -95.59917 | 31662 ft | 416 kts | 232° |
| 2026-05-04 15:43 | 34.09037 | -95.62137 | 31115 ft | 417 kts | 232° |
| 2026-05-04 15:43 | 34.06814 | -95.64346 | 30564 ft | 410 kts | 231° |
| 2026-05-04 15:43 | 34.04602 | -95.66545 | 30037 ft | 412 kts | 230° |
| 2026-05-04 15:43 | 34.02433 | -95.68698 | 29489 ft | 407 kts | 230° |
| 2026-05-04 15:44 | 34.00256 | -95.70857 | 28936 ft | 403 kts | 229° |
| 2026-05-04 15:44 | 33.98078 | -95.73016 | 28398 ft | 401 kts | 229° |
| 2026-05-04 15:44 | 33.95952 | -95.75127 | 27877 ft | 399 kts | 229° |
| 2026-05-04 15:44 | 33.93835 | -95.77245 | 27431 ft | 393 kts | 229° |
| 2026-05-04 15:45 | 33.91754 | -95.79330 | 26909 ft | 393 kts | 229° |
| 2026-05-04 15:45 | 33.89633 | -95.81453 | 26386 ft | 394 kts | 229° |
| 2026-05-04 15:45 | 33.87538 | -95.83546 | 25861 ft | 389 kts | 229° |
| 2026-05-04 15:45 | 33.85479 | -95.85604 | 25350 ft | 388 kts | 229° |
| 2026-05-04 15:46 | 33.83408 | -95.87672 | 24839 ft | 385 kts | 228° |
| 2026-05-04 15:46 | 33.81354 | -95.89703 | 24376 ft | 383 kts | 228° |
| 2026-05-04 15:46 | 33.79295 | -95.91738 | 23869 ft | 381 kts | 227° |
| 2026-05-04 15:46 | 33.77252 | -95.93754 | 23370 ft | 378 kts | 227° |
| 2026-05-04 15:47 | 33.75242 | -95.95737 | 22872 ft | 378 kts | 227° |
| 2026-05-04 15:47 | 33.73224 | -95.97727 | 22371 ft | 376 kts | 227° |
| 2026-05-04 15:47 | 33.71212 | -95.99709 | 21885 ft | 373 kts | 227° |
| 2026-05-04 15:47 | 33.69209 | -96.01682 | 21393 ft | 369 kts | 227° |
| 2026-05-04 15:48 | 33.67240 | -96.03619 | 20908 ft | 366 kts | 227° |
| 2026-05-04 15:48 | 33.65287 | -96.05540 | 20420 ft | 364 kts | 227° |
| 2026-05-04 15:48 | 33.61419 | -96.09341 | 19473 ft | 357 kts | 227° |
| 2026-05-04 15:49 | 33.59493 | -96.11232 | 18999 ft | 355 kts | 226° |
| 2026-05-04 15:49 | 33.57608 | -96.13081 | 18531 ft | 347 kts | 227° |
| 2026-05-04 15:49 | 33.55772 | -96.14881 | 18085 ft | 342 kts | 226° |
| 2026-05-04 15:49 | 33.53934 | -96.16684 | 17628 ft | 339 kts | 227° |
| 2026-05-04 15:50 | 33.52129 | -96.18452 | 17209 ft | 339 kts | 226° |
| 2026-05-04 15:50 | 33.50304 | -96.20239 | 16762 ft | 336 kts | 226° |
| 2026-05-04 15:50 | 33.48502 | -96.22002 | 16320 ft | 336 kts | 226° |
| 2026-05-04 15:50 | 33.46695 | -96.23770 | 15866 ft | 332 kts | 226° |
| 2026-05-04 15:51 | 33.44921 | -96.25517 | 15424 ft | 329 kts | 229° |
| 2026-05-04 15:51 | 33.43395 | -96.27489 | 15063 ft | 314 kts | 235° |
| 2026-05-04 15:51 | 33.42001 | -96.29410 | 14666 ft | 303 kts | 235° |
| 2026-05-04 15:51 | 33.40630 | -96.31299 | 14273 ft | 294 kts | 236° |
| 2026-05-04 15:52 | 33.39303 | -96.33129 | 13891 ft | 293 kts | 235° |
| 2026-05-04 15:52 | 33.37969 | -96.34969 | 13507 ft | 295 kts | 235° |
| 2026-05-04 15:52 | 33.36619 | -96.36826 | 13117 ft | 294 kts | 235° |
| 2026-05-04 15:52 | 33.35289 | -96.38657 | 12729 ft | 292 kts | 235° |
| 2026-05-04 15:53 | 33.33953 | -96.40495 | 12342 ft | 291 kts | 234° |
| 2026-05-04 15:53 | 33.32730 | -96.42375 | 11947 ft | 285 kts | 249° |
| 2026-05-04 15:53 | 33.32055 | -96.44512 | 11870 ft | 268 kts | 255° |
| 2026-05-04 15:53 | 33.31455 | -96.46608 | 11579 ft | 269 kts | 255° |
| 2026-05-04 15:54 | 33.30857 | -96.48719 | 11243 ft | 266 kts | 255° |
| 2026-05-04 15:54 | 33.30263 | -96.50825 | 10894 ft | 265 kts | 255° |
| 2026-05-04 15:54 | 33.29681 | -96.52894 | 10545 ft | 264 kts | 255° |
| 2026-05-04 15:54 | 33.29097 | -96.54969 | 10194 ft | 264 kts | 255° |
| 2026-05-04 15:55 | 33.28697 | -96.57076 | 9897 ft | 258 kts | 268° |
| 2026-05-04 15:55 | 33.28594 | -96.59188 | 9858 ft | 258 kts | 269° |
| 2026-05-04 15:55 | 33.28492 | -96.61358 | 9573 ft | 259 kts | 268° |
| 2026-05-04 15:55 | 33.28394 | -96.63479 | 9253 ft | 258 kts | 268° |
| 2026-05-04 15:56 | 33.28294 | -96.65614 | 8911 ft | 256 kts | 267° |
| 2026-05-04 15:56 | 33.28195 | -96.67756 | 8577 ft | 254 kts | 267° |
| 2026-05-04 15:56 | 33.28099 | -96.69823 | 8236 ft | 246 kts | 267° |
| 2026-05-04 15:56 | 33.28006 | -96.71825 | 7912 ft | 240 kts | 267° |
| 2026-05-04 15:57 | 33.27915 | -96.73786 | 7604 ft | 237 kts | 266° |
| 2026-05-04 15:57 | 33.27822 | -96.75771 | 7291 ft | 238 kts | 266° |
| 2026-05-04 15:57 | 33.27729 | -96.77731 | 6978 ft | 238 kts | 266° |
| 2026-05-04 15:57 | 33.27637 | -96.79707 | 6665 ft | 237 kts | 265° |
| 2026-05-04 15:58 | 33.27544 | -96.81657 | 6348 ft | 235 kts | 266° |
| 2026-05-04 15:58 | 33.27504 | -96.83551 | 6161 ft | 226 kts | 267° |
| 2026-05-04 15:58 | 33.27478 | -96.85397 | 5936 ft | 216 kts | 266° |
| 2026-05-04 15:58 | 33.27442 | -96.87158 | 5665 ft | 210 kts | 266° |
| 2026-05-04 15:59 | 33.27408 | -96.88881 | 5538 ft | 208 kts | 266° |
| 2026-05-04 15:59 | 33.27371 | -96.90623 | 5427 ft | 211 kts | 265° |
| 2026-05-04 15:59 | 33.27333 | -96.92351 | 5315 ft | 211 kts | 265° |
| 2026-05-04 15:59 | 33.27292 | -96.94121 | 5191 ft | 210 kts | 265° |
| 2026-05-04 16:00 | 33.27234 | -96.95857 | 5064 ft | 210 kts | 257° |
| 2026-05-04 16:00 | 33.26516 | -96.97307 | 4983 ft | 206 kts | 219° |
| 2026-05-04 16:00 | 33.25299 | -96.98245 | 4879 ft | 208 kts | 213° |
| 2026-05-04 16:00 | 33.24072 | -96.99111 | 4742 ft | 206 kts | 212° |
| 2026-05-04 16:01 | 33.22841 | -96.99973 | 4599 ft | 205 kts | 212° |
| 2026-05-04 16:01 | 33.21601 | -97.00843 | 4453 ft | 204 kts | 212° |
| 2026-05-04 16:01 | 33.20396 | -97.01704 | 4312 ft | 201 kts | 212° |
| 2026-05-04 16:01 | 33.19186 | -97.02576 | 4167 ft | 200 kts | 212° |
| 2026-05-04 16:02 | 33.17995 | -97.03451 | 4022 ft | 201 kts | 212° |
| 2026-05-04 16:02 | 33.16805 | -97.04327 | 3885 ft | 201 kts | 212° |
| 2026-05-04 16:02 | 33.14185 | -97.05327 | 3722 ft | 203 kts | 184° |
| 2026-05-04 16:03 | 33.12779 | -97.05347 | 3637 ft | 204 kts | 184° |
| 2026-05-04 16:03 | 33.11408 | -97.05358 | 3592 ft | 187 kts | 185° |
| 2026-05-04 16:03 | 33.10146 | -97.05366 | 3462 ft | 174 kts | 185° |
| 2026-05-04 16:03 | 33.08974 | -97.05374 | 3339 ft | 166 kts | 184° |
| 2026-05-04 16:04 | 33.07827 | -97.05382 | 3237 ft | 163 kts | 184° |
| 2026-05-04 16:04 | 33.05547 | -97.05393 | 3057 ft | 164 kts | 185° |
| 2026-05-04 16:04 | 33.04405 | -97.05399 | 2982 ft | 163 kts | 185° |
| 2026-05-04 16:05 | 33.03276 | -97.05405 | 2821 ft | 165 kts | 185° |
| 2026-05-04 16:05 | 33.02150 | -97.05411 | 2627 ft | 163 kts | 184° |
| 2026-05-04 16:05 | 32.99855 | -97.05422 | 2209 ft | 165 kts | 183° |
| 2026-05-04 16:06 | 32.98780 | -97.05426 | 2064 ft | 140 kts | 184° |
| 2026-05-04 16:06 | 32.96484 | -97.05426 | 1470 ft | 112 kts | 183° |
| 2026-05-04 16:07 | 32.95460 | -97.05386 | 1288 ft | 109 kts | 182° |
| 2026-05-04 16:07 | 32.93182 | -97.05431 | 984 ft | 111 kts | 182° |
| 2026-05-04 16:08 | 32.92390 | -97.05446 | 833 ft | 116 kts | 182° |
| 2026-05-04 16:08 | 32.90339 | -97.05474 | 616 ft | 53 kts | 181° |
| 2026-05-04 16:09 | 32.89816 | -97.05317 | 609 ft | 28 kts | 152° |
| 2026-05-04 16:09 | 32.89757 | -97.05035 | 605 ft | 17 kts | 88° |
| 2026-05-04 16:10 | 32.89772 | -97.04769 | 602 ft | 12 kts | 26° |
| 2026-05-04 16:11 | 32.90050 | -97.04764 | 605 ft | 13 kts | 0° |
| 2026-05-04 16:11 | 32.90151 | -97.04764 | 605 ft | 15 kts | 0° |
| 2026-05-04 16:12 | 32.90511 | -97.04762 | 602 ft | 16 kts | 360° |
| 2026-05-04 16:12 | 32.90842 | -97.04761 | 595 ft | 14 kts | 360° |
| 2026-05-04 16:13 | 32.90908 | -97.04665 | 592 ft | 10 kts | 94° |
| 2026-05-04 16:13 | 32.90842 | -97.04572 | 593 ft | 6 kts | 150° |
| 2026-05-04 16:14 | 32.90771 | -97.04582 | 595 ft | 4 kts | 168° |
| 2026-05-04 16:14 | 32.90754 | -97.04578 | 595 ft | 0 kts | 170° |